高松空港の過去48時間の天気

高松空港 (Takamatsu)

現在時刻: 2/21 03:30 JST (2/20 18:30 UTC) 以下の時間は現地時間です。

過去48時間のMETAR気象情報
時間 風向 風速(m/s) 視程 気温(℃) 湿度(%) 気圧(hPa) 天気現象
20 21:00 南東 2 10km以上 5 70 1033
20 20:00 不定 1 10km以上 6 65 1033
20 19:00 南南西 3 10km以上 8 53 1032
20 18:00 西南西 4 10km以上 9 50 1031
20 17:00 西 4 10km以上 11 40 1030
20 16:00 西 5 10km以上 12 35 1029
20 15:00 西 4 10km以上 11 47 1029
20 14:00 西北西 4 10km以上 11 50 1029
20 13:00 北西 3 10km以上 11 50 1029
20 12:00 2 10km以上 10 54 1030
20 11:00 不定 1 10km以上 8 61 1030
20 10:00 西 2 10km以上 7 66 1030
20 09:00 南東 2 10km以上 5 75 1030
20 08:00 南南東 3 10km以上 4 75 1030
20 07:00 南南東 3 10km以上 2 87 1030
20 06:20 南東 5 10km以上 1 86 1029
19 21:00 南東 4 10km以上 2 81 1028
19 20:00 南東 4 10km以上 3 75 1028
19 19:00 3 10km以上 5 65 1027
19 18:00 西北西 2 10km以上 7 53 1027
19 17:00 西 2 10km以上 9 46 1026
19 16:00 西北西 4 10km以上 10 43 1026
19 15:00 西北西 5 10km以上 10 43 1026
19 14:00 西 4 10km以上 9 46 1026
19 13:00 北西 4 10km以上 9 53 1026
19 12:00 西北西 3 10km以上 8 53 1027
19 11:00 不定 2 10km以上 7 53 1028
19 10:00 西 3 10km以上 5 65 1028
19 09:00 西南西 3 10km以上 5 65 1028
19 08:00 南南西 3 10km以上 2 81 1028
19 07:00 3 10km以上 0 86 1027
19 06:20 3 10km以上 0 86 1026
RJOT 201200Z 14004KT 9999 FEW025 SCT050 05/M00 Q1033
RJOT 201100Z VRB02KT 9999 FEW025 06/M00 Q1033
RJOT 201000Z 21005KT 9999 FEW025 08/M01 Q1032
RJOT 200900Z 24007KT 9999 FEW025 09/M01 Q1031
RJOT 200800Z 26007KT 9999 FEW025 11/M02 Q1030
RJOT 200700Z 27009KT 9999 FEW025 12/M03 Q1029
RJOT 200600Z 28007KT 9999 FEW025 11/M00 Q1029
RJOT 200500Z 29007KT 240V360 9999 FEW025 11/01 Q1029
RJOT 200400Z 32005KT 270V020 9999 FEW025 11/01 Q1029
RJOT 200300Z 36004KT 300V070 9999 FEW020 SCT120 BKN/// 10/01 Q1030
RJOT 200200Z VRB02KT 9999 FEW020 SCT110 BKN130 08/01 Q1030
RJOT 200100Z 28003KT 230V310 9999 FEW020 SCT140 BKN170 07/01 Q1030
RJOT 200000Z 13003KT 100V160 9999 FEW020 SCT150 BKN170 05/01 Q1030
RJOT 192300Z 15005KT 9999 FEW020 SCT150 BKN170 04/00 Q1030
RJOT 192200Z 15005KT 9999 FEW020 SCT150 BKN170 02/00 Q1030
RJOT 192120Z 14009KT 9999 FEW020 SCT150 BKN180 01/M01 Q1029 RMK 1CU020 3AC150 6AC180 A3039
RJOT 191200Z 14008KT 9999 FEW030 SCT/// 02/M01 Q1028
RJOT 191100Z 14008KT 9999 FEW030 SCT/// 03/M01 Q1028
RJOT 191000Z 19005KT 9999 FEW030 05/M01 Q1027
RJOT 190900Z 29004KT 9999 FEW030 07/M02 Q1027
RJOT 190800Z 28004KT 250V320 9999 FEW025 09/M02 Q1026
RJOT 190700Z 29007KT 260V070 9999 FEW025 10/M02 Q1026
RJOT 190600Z 29009KT 260V330 9999 FEW025 SCT/// 10/M02 Q1026
RJOT 190500Z 27008KT 240V330 9999 FEW025 SCT/// 09/M02 Q1026
RJOT 190400Z 31008KT 270V340 9999 FEW025 BKN/// 09/00 Q1026
RJOT 190300Z 29006KT 250V340 9999 FEW025 BKN/// 08/M01 Q1027
RJOT 190200Z VRB03G13KT 9999 FEW025 BKN/// 07/M02 Q1028
RJOT 190100Z 27005KT 250V320 9999 FEW025 BKN/// 05/M01 Q1028
RJOT 190000Z 25005KT 220V280 9999 FEW025 SCT/// 05/M01 Q1028
RJOT 182300Z 21005KT 9999 FEW025 02/M01 Q1028
RJOT 182200Z 17005KT 9999 FEW025 00/M02 Q1027
RJOT 182120Z 18005KT 9999 FEW025 00/M02 Q1026 RMK 1CU025 A3032